createdAt,value
2018-05-09T00:00:10.793Z,982.06
2018-05-09T00:01:11.003Z,982.05
2018-05-09T00:02:13.192Z,982.10
2018-05-09T00:03:11.406Z,982.03
2018-05-09T00:04:11.626Z,982.04
2018-05-09T00:05:11.848Z,982.01
2018-05-09T00:06:12.058Z,982.02
2018-05-09T00:07:12.275Z,982.00
2018-05-09T00:08:12.486Z,982.01
2018-05-09T00:09:14.185Z,982.04
2018-05-09T00:10:12.895Z,982.09
2018-05-09T00:11:13.114Z,982.06
2018-05-09T00:12:13.323Z,982.07
2018-05-09T00:13:13.534Z,982.10
2018-05-09T00:14:13.748Z,982.09
2018-05-09T00:15:13.958Z,982.02
2018-05-09T00:16:14.181Z,982.09
2018-05-09T00:17:14.381Z,982.10
2018-05-09T00:18:14.590Z,982.08
2018-05-09T00:19:14.825Z,982.06
2018-05-09T00:20:15.042Z,982.07
2018-05-09T00:21:15.286Z,982.10
2018-05-09T00:22:15.495Z,982.10
2018-05-09T00:23:15.680Z,982.09
2018-05-09T00:24:15.908Z,982.12
2018-05-09T00:25:16.126Z,982.10
2018-05-09T00:26:16.337Z,982.09
2018-05-09T00:27:16.563Z,982.03
2018-05-09T00:28:16.794Z,982.05
2018-05-09T00:29:16.998Z,982.02
2018-05-09T00:30:17.224Z,982.04
2018-05-09T00:31:17.463Z,982.06
2018-05-09T00:32:17.646Z,982.06
2018-05-09T00:33:17.866Z,982.05
2018-05-09T00:34:18.090Z,982.00
2018-05-09T00:35:20.189Z,982.03
2018-05-09T00:36:18.521Z,982.02
2018-05-09T00:37:18.750Z,981.97
2018-05-09T00:38:18.977Z,982.02
2018-05-09T00:39:19.193Z,982.02
2018-05-09T00:40:19.403Z,982.07
2018-05-09T00:41:19.613Z,982.06
2018-05-09T00:42:19.836Z,981.98
2018-05-09T00:43:20.052Z,982.02
2018-05-09T00:44:22.198Z,981.99
2018-05-09T00:45:20.412Z,981.98
2018-05-09T00:46:20.631Z,982.00
2018-05-09T00:47:20.839Z,981.96
2018-05-09T00:48:22.688Z,981.98
2018-05-09T00:49:21.280Z,981.98
2018-05-09T00:50:21.521Z,981.96
2018-05-09T00:51:21.715Z,981.96
2018-05-09T00:52:21.943Z,981.97
2018-05-09T00:53:22.159Z,981.96
2018-05-09T00:54:22.368Z,981.92
2018-05-09T00:55:22.575Z,981.94
2018-05-09T00:56:22.794Z,981.96
2018-05-09T00:57:24.685Z,981.95
2018-05-09T00:58:23.158Z,981.92
2018-05-09T00:59:23.384Z,981.99
2018-05-09T01:00:23.585Z,981.98
2018-05-09T01:01:23.807Z,981.93
2018-05-09T01:02:24.015Z,981.96
2018-05-09T01:03:24.234Z,981.96
2018-05-09T01:04:24.463Z,981.99
2018-05-09T01:05:24.675Z,982.00
2018-05-09T01:06:24.905Z,981.92
2018-05-09T01:07:25.126Z,981.97
2018-05-09T01:08:25.333Z,981.95
2018-05-09T01:09:25.553Z,981.93
2018-05-09T01:10:25.758Z,981.90
2018-05-09T01:11:25.970Z,981.93
2018-05-09T01:12:26.194Z,981.90
2018-05-09T01:13:26.395Z,981.89
2018-05-09T01:14:26.626Z,981.93
2018-05-09T01:15:26.837Z,981.86
2018-05-09T01:16:27.074Z,981.93
2018-05-09T01:17:29.196Z,981.86
2018-05-09T01:18:27.409Z,981.88
2018-05-09T01:19:27.616Z,981.92
2018-05-09T01:20:27.836Z,981.86
2018-05-09T01:21:28.040Z,981.87
2018-05-09T01:22:28.247Z,981.84
2018-05-09T01:23:28.464Z,981.86
2018-05-09T01:24:28.672Z,981.83
2018-05-09T01:25:28.901Z,981.83
2018-05-09T01:26:30.693Z,981.89
2018-05-09T01:27:31.194Z,981.90
2018-05-09T01:28:29.402Z,981.86
2018-05-09T01:29:29.621Z,981.89
2018-05-09T01:30:29.830Z,981.85
2018-05-09T01:31:30.047Z,981.88
2018-05-09T01:32:32.207Z,981.85
2018-05-09T01:33:32.190Z,981.84
2018-05-09T01:34:30.530Z,981.83
2018-05-09T01:35:32.696Z,981.80
2018-05-09T01:36:30.908Z,981.81
2018-05-09T01:37:31.126Z,981.79
2018-05-09T01:38:31.334Z,981.80
2018-05-09T01:39:31.549Z,981.79
2018-05-09T01:40:31.758Z,981.78
2018-05-09T01:41:31.982Z,981.78
2018-05-09T01:42:32.202Z,981.74
2018-05-09T01:43:32.415Z,981.74
2018-05-09T01:44:32.629Z,981.73
2018-05-09T01:45:32.841Z,981.72
2018-05-09T01:46:36.699Z,981.74
2018-05-09T01:47:33.305Z,981.73
2018-05-09T01:48:33.497Z,981.76
2018-05-09T01:49:33.704Z,981.75
2018-05-09T01:50:33.927Z,981.75
2018-05-09T01:51:34.167Z,981.75
2018-05-09T01:52:34.379Z,981.77
2018-05-09T01:53:34.561Z,981.78
2018-05-09T01:54:34.784Z,981.79
2018-05-09T01:55:35.002Z,981.77
2018-05-09T01:56:35.218Z,981.72
2018-05-09T01:57:35.434Z,981.77
2018-05-09T01:58:35.655Z,981.77
2018-05-09T01:59:35.868Z,981.78
2018-05-09T02:00:36.104Z,981.79
2018-05-09T02:01:36.298Z,981.83
2018-05-09T02:02:36.506Z,981.78
2018-05-09T02:03:36.724Z,981.79
2018-05-09T02:04:36.932Z,981.74
2018-05-09T02:05:37.145Z,981.71
2018-05-09T02:06:40.198Z,981.75
2018-05-09T02:07:37.528Z,981.75
2018-05-09T02:08:37.742Z,981.77
2018-05-09T02:09:37.969Z,981.80
2018-05-09T02:10:38.171Z,981.72
2018-05-09T02:11:38.376Z,981.69
2018-05-09T02:12:38.597Z,981.71
2018-05-09T02:13:38.797Z,981.66
2018-05-09T02:14:39.019Z,981.65
2018-05-09T02:15:39.238Z,981.67
2018-05-09T02:16:39.496Z,981.66
2018-05-09T02:17:39.701Z,981.60
2018-05-09T02:18:39.900Z,981.60
2018-05-09T02:19:40.116Z,981.61
2018-05-09T02:20:40.327Z,981.63
2018-05-09T02:21:40.543Z,981.68
2018-05-09T02:22:40.764Z,981.70
2018-05-09T02:23:40.988Z,981.73
2018-05-09T02:24:41.189Z,981.70
2018-05-09T02:25:41.412Z,981.77
2018-05-09T02:26:41.624Z,981.75
2018-05-09T02:27:41.848Z,981.72
2018-05-09T02:28:42.075Z,981.72
2018-05-09T02:29:42.285Z,981.78
2018-05-09T02:30:44.200Z,981.74
2018-05-09T02:31:42.669Z,981.77
2018-05-09T02:32:42.884Z,981.78
2018-05-09T02:33:43.110Z,981.75
2018-05-09T02:34:43.322Z,981.71
2018-05-09T02:35:43.533Z,981.73
2018-05-09T02:36:43.750Z,981.70
2018-05-09T02:37:43.953Z,981.70
2018-05-09T02:38:44.161Z,981.68
2018-05-09T02:39:44.374Z,981.69
2018-05-09T02:40:44.581Z,981.74
2018-05-09T02:41:44.807Z,981.77
2018-05-09T02:42:45.015Z,981.72
2018-05-09T02:43:45.351Z,981.73
2018-05-09T02:44:45.440Z,981.70
2018-05-09T02:45:45.667Z,981.65
2018-05-09T02:46:45.921Z,981.66
2018-05-09T02:47:46.120Z,981.63
2018-05-09T02:48:48.090Z,981.63
2018-05-09T02:49:46.655Z,981.63
2018-05-09T02:50:46.778Z,981.63
2018-05-09T02:51:48.701Z,981.60
2018-05-09T02:52:47.174Z,981.62
2018-05-09T02:53:49.205Z,981.64
2018-05-09T02:54:47.533Z,981.61
2018-05-09T02:55:47.789Z,981.57
2018-05-09T02:56:47.971Z,981.59
2018-05-09T02:57:48.190Z,981.62
2018-05-09T02:58:50.202Z,981.60
2018-05-09T02:59:48.529Z,981.60
2018-05-09T03:00:48.743Z,981.61
2018-05-09T03:01:48.991Z,981.60
2018-05-09T03:02:49.195Z,981.58
2018-05-09T03:03:49.406Z,981.63
2018-05-09T03:04:49.633Z,981.61
2018-05-09T03:05:49.850Z,981.59
2018-05-09T03:06:50.059Z,981.65
2018-05-09T03:07:50.282Z,981.62
2018-05-09T03:08:50.509Z,981.57
2018-05-09T03:09:50.711Z,981.60
2018-05-09T03:10:50.916Z,981.55
2018-05-09T03:11:51.137Z,981.57
2018-05-09T03:12:51.346Z,981.56
2018-05-09T03:13:51.550Z,981.55
2018-05-09T03:14:51.772Z,981.60
2018-05-09T03:15:51.983Z,981.57
2018-05-09T03:16:52.203Z,981.61
2018-05-09T03:17:52.424Z,981.59
2018-05-09T03:18:52.644Z,981.54
2018-05-09T03:19:52.863Z,981.53
2018-05-09T03:20:53.082Z,981.54
2018-05-09T03:21:53.299Z,981.45
2018-05-09T03:22:53.530Z,981.46
2018-05-09T03:23:53.746Z,981.48
2018-05-09T03:24:53.957Z,981.47
2018-05-09T03:25:54.174Z,981.50
2018-05-09T03:26:56.194Z,981.50
2018-05-09T03:27:54.527Z,981.52
2018-05-09T03:28:54.759Z,981.54
2018-05-09T03:29:54.966Z,981.52
2018-05-09T03:30:55.188Z,981.55
2018-05-09T03:31:55.419Z,981.54
2018-05-09T03:32:58.200Z,981.55
2018-05-09T03:33:55.818Z,981.57
2018-05-09T03:34:56.015Z,981.50
2018-05-09T03:35:56.232Z,981.56
2018-05-09T03:36:56.448Z,981.51
2018-05-09T03:37:57.414Z,981.53
2018-05-09T03:38:56.895Z,981.50
2018-05-09T03:39:57.126Z,981.51
2018-05-09T03:40:57.333Z,981.52
2018-05-09T03:41:57.552Z,981.44
2018-05-09T03:42:57.765Z,981.48
2018-05-09T03:43:57.971Z,981.50
2018-05-09T03:44:59.703Z,981.52
2018-05-09T03:45:58.408Z,981.49
2018-05-09T03:46:58.611Z,981.48
2018-05-09T03:47:58.836Z,981.47
2018-05-09T03:49:00.700Z,981.48
2018-05-09T03:49:59.164Z,981.48
2018-05-09T03:50:59.388Z,981.52
2018-05-09T03:51:59.592Z,981.52
2018-05-09T03:52:59.803Z,981.53
2018-05-09T03:54:00.030Z,981.55
2018-05-09T03:55:00.221Z,981.58
2018-05-09T03:56:00.439Z,981.65
2018-05-09T03:57:00.666Z,981.62
2018-05-09T03:58:00.876Z,981.66
2018-05-09T03:59:01.101Z,981.63
2018-05-09T04:00:01.317Z,981.64
2018-05-09T04:01:01.526Z,981.64
2018-05-09T04:02:01.759Z,981.62
2018-05-09T04:03:01.948Z,981.62
2018-05-09T04:04:02.176Z,981.65
2018-05-09T04:05:02.288Z,981.62
2018-05-09T04:06:04.204Z,981.65
2018-05-09T04:07:02.673Z,981.62
2018-05-09T04:08:02.884Z,981.60
2018-05-09T04:09:03.095Z,981.59
2018-05-09T04:10:03.322Z,981.63
2018-05-09T04:11:03.526Z,981.66
2018-05-09T04:12:03.743Z,981.62
2018-05-09T04:13:03.962Z,981.65
2018-05-09T04:14:04.161Z,981.71
2018-05-09T04:15:04.425Z,981.70
2018-05-09T04:16:04.614Z,981.71
2018-05-09T04:17:04.825Z,981.71
2018-05-09T04:18:05.057Z,981.69
2018-05-09T04:19:05.349Z,981.73
2018-05-09T04:20:05.467Z,981.74
2018-05-09T04:21:05.694Z,981.70
2018-05-09T04:22:05.896Z,981.71
2018-05-09T04:23:06.117Z,981.69
2018-05-09T04:24:06.343Z,981.68
2018-05-09T04:25:06.546Z,981.69
2018-05-09T04:26:06.754Z,981.69
2018-05-09T04:27:06.961Z,981.73
2018-05-09T04:28:07.258Z,981.71
2018-05-09T04:29:07.403Z,981.69
2018-05-09T04:30:07.618Z,981.69
2018-05-09T04:31:07.836Z,981.73
2018-05-09T04:32:08.049Z,981.71
2018-05-09T04:33:10.195Z,981.67
2018-05-09T04:34:08.412Z,981.66
2018-05-09T04:35:08.619Z,981.68
2018-05-09T04:36:08.856Z,981.66
2018-05-09T04:37:09.076Z,981.64
2018-05-09T04:38:09.275Z,981.68
2018-05-09T04:39:09.491Z,981.64
2018-05-09T04:40:11.205Z,981.62
2018-05-09T04:41:09.924Z,981.63
2018-05-09T04:42:10.157Z,981.67
2018-05-09T04:43:13.205Z,981.70
2018-05-09T04:44:10.543Z,981.74
2018-05-09T04:45:10.768Z,981.74
2018-05-09T04:46:10.988Z,981.71
2018-05-09T04:47:11.204Z,981.72
2018-05-09T04:48:13.208Z,981.69
2018-05-09T04:49:11.587Z,981.66
2018-05-09T04:50:11.745Z,981.68
2018-05-09T04:51:13.694Z,981.70
2018-05-09T04:52:12.155Z,981.72
2018-05-09T04:53:12.409Z,981.69
2018-05-09T04:54:12.579Z,981.72
2018-05-09T04:55:14.719Z,981.65
2018-05-09T04:56:15.702Z,981.70
2018-05-09T04:57:13.154Z,981.68
2018-05-09T04:58:13.373Z,981.71
2018-05-09T04:59:13.592Z,981.74
2018-05-09T05:00:13.809Z,981.72
2018-05-09T05:01:14.023Z,981.68
2018-05-09T05:02:14.250Z,981.69
2018-05-09T05:03:14.462Z,981.67
2018-05-09T05:04:14.677Z,981.71
2018-05-09T05:05:14.881Z,981.70
2018-05-09T05:06:16.693Z,981.66
2018-05-09T05:07:15.287Z,981.63
2018-05-09T05:08:15.498Z,981.60
2018-05-09T05:09:15.708Z,981.64
2018-05-09T05:10:17.695Z,981.57
2018-05-09T05:11:16.163Z,981.61
2018-05-09T05:12:16.420Z,981.61
2018-05-09T05:13:16.611Z,981.58
2018-05-09T05:14:18.694Z,981.59
2018-05-09T05:15:17.037Z,981.58
2018-05-09T05:16:19.194Z,981.58
2018-05-09T05:17:17.405Z,981.59
2018-05-09T05:18:17.618Z,981.58
2018-05-09T05:19:19.695Z,981.64
2018-05-09T05:20:18.036Z,981.60
2018-05-09T05:21:18.259Z,981.64
2018-05-09T05:22:18.469Z,981.64
2018-05-09T05:23:18.685Z,981.63
2018-05-09T05:24:20.707Z,981.67
2018-05-09T05:25:19.062Z,981.72
2018-05-09T05:26:19.269Z,981.70
2018-05-09T05:27:19.488Z,981.76
2018-05-09T05:28:19.709Z,981.77
2018-05-09T05:29:19.925Z,981.80
2018-05-09T05:30:20.132Z,981.78
2018-05-09T05:31:20.353Z,981.82
2018-05-09T05:32:20.577Z,981.80
2018-05-09T05:33:20.793Z,981.82
2018-05-09T05:34:22.708Z,981.78
2018-05-09T05:35:21.178Z,981.81
2018-05-09T05:36:21.387Z,981.86
2018-05-09T05:37:21.623Z,981.85
2018-05-09T05:38:21.860Z,981.86
2018-05-09T05:39:23.701Z,981.88
2018-05-09T05:40:22.295Z,981.94
2018-05-09T05:41:22.509Z,981.89
2018-05-09T05:42:24.697Z,981.92
2018-05-09T05:43:22.913Z,981.94
2018-05-09T05:44:24.705Z,981.93
2018-05-09T05:45:23.393Z,981.95
2018-05-09T05:46:23.524Z,981.94
2018-05-09T05:47:23.753Z,982.00
2018-05-09T05:48:25.700Z,982.00
2018-05-09T05:49:24.164Z,982.07
2018-05-09T05:50:24.401Z,982.12
2018-05-09T05:51:24.601Z,982.15
2018-05-09T05:52:24.822Z,982.16
2018-05-09T05:53:26.744Z,982.16
2018-05-09T05:54:25.173Z,982.16
2018-05-09T05:55:25.391Z,982.13
2018-05-09T05:56:25.617Z,982.13
2018-05-09T05:57:25.833Z,982.09
2018-05-09T05:58:26.045Z,982.07
2018-05-09T05:59:26.255Z,982.01
2018-05-09T06:00:26.466Z,981.97
2018-05-09T06:01:26.689Z,981.98
2018-05-09T06:02:26.924Z,981.96
2018-05-09T06:03:27.129Z,981.98
2018-05-09T06:04:27.365Z,981.97
2018-05-09T06:05:27.573Z,981.92
2018-05-09T06:06:27.846Z,981.93
2018-05-09T06:07:28.038Z,981.90
2018-05-09T06:08:28.228Z,981.93
2018-05-09T06:09:28.440Z,981.91
2018-05-09T06:10:28.703Z,981.96
2018-05-09T06:11:32.699Z,981.95
2018-05-09T06:12:29.047Z,981.98
2018-05-09T06:13:29.266Z,982.00
2018-05-09T06:14:31.216Z,982.05
2018-05-09T06:15:29.695Z,982.04
2018-05-09T06:16:29.910Z,981.99
2018-05-09T06:17:30.139Z,981.99
2018-05-09T06:18:30.368Z,981.98
2018-05-09T06:19:32.211Z,981.95
2018-05-09T06:20:30.797Z,981.91
2018-05-09T06:21:31.031Z,981.90
2018-05-09T06:22:31.252Z,981.91
2018-05-09T06:23:33.221Z,981.97
2018-05-09T06:24:31.706Z,981.95
2018-05-09T06:25:31.919Z,981.99
2018-05-09T06:26:32.139Z,981.99
2018-05-09T06:27:33.358Z,982.03
2018-05-09T06:28:34.202Z,982.06
2018-05-09T06:29:32.808Z,982.07
2018-05-09T06:30:33.020Z,981.89
2018-05-09T06:31:33.239Z,981.87
2018-05-09T06:32:33.470Z,982.02
2018-05-09T06:33:33.648Z,982.08
2018-05-09T06:34:33.748Z,982.07
2018-05-09T06:35:33.966Z,981.92
2018-05-09T06:36:35.708Z,981.91
2018-05-09T06:37:36.257Z,981.88
2018-05-09T06:38:37.212Z,981.93
2018-05-09T06:39:34.837Z,981.99
2018-05-09T06:40:35.035Z,982.03
2018-05-09T06:41:35.192Z,982.18
2018-05-09T06:42:35.330Z,982.18
2018-05-09T06:43:35.553Z,982.26
2018-05-09T06:44:35.806Z,982.16
2018-05-09T06:45:37.713Z,982.18
2018-05-09T06:46:36.049Z,982.08
2018-05-09T06:47:36.262Z,982.01
2018-05-09T06:48:38.211Z,982.00
2018-05-09T06:49:38.206Z,982.12
2018-05-09T06:50:38.704Z,982.20
2018-05-09T06:51:38.707Z,982.11
2018-05-09T06:52:37.167Z,982.12
2018-05-09T06:53:39.210Z,982.15
2018-05-09T06:54:37.558Z,982.16
2018-05-09T06:55:37.818Z,982.12
2018-05-09T06:56:38.058Z,982.12
2018-05-09T06:57:38.262Z,982.04
2018-05-09T06:58:39.495Z,981.91
2018-05-09T06:59:41.706Z,981.90
2018-05-09T07:00:41.718Z,982.08
2018-05-09T07:01:41.725Z,982.10
2018-05-09T07:02:42.708Z,982.17
2018-05-09T07:03:43.211Z,982.21
2018-05-09T07:04:41.229Z,982.19
2018-05-09T07:05:43.223Z,982.20
2018-05-09T07:06:42.137Z,982.13
2018-05-09T07:07:41.113Z,982.03
2018-05-09T07:08:40.240Z,982.02
2018-05-09T07:09:41.375Z,982.02
2018-05-09T07:11:02.481Z,982.02
2018-05-09T07:11:42.235Z,982.08
2018-05-09T07:12:42.807Z,982.19
2018-05-09T07:13:42.765Z,982.09
2018-05-09T07:14:41.193Z,981.97
2018-05-09T07:15:43.206Z,981.95
2018-05-09T07:16:43.206Z,981.92
2018-05-09T07:17:43.210Z,981.89
2018-05-09T07:18:43.714Z,981.98
2018-05-09T07:19:42.079Z,982.04
2018-05-09T07:20:42.290Z,982.07
2018-05-09T07:21:44.216Z,982.07
2018-05-09T07:22:44.215Z,982.04
2018-05-09T07:23:45.737Z,981.90
2018-05-09T07:24:44.725Z,981.98
2018-05-09T07:25:45.223Z,981.98
2018-05-09T07:26:43.573Z,982.04
2018-05-09T07:27:43.844Z,982.01
2018-05-09T07:28:44.068Z,982.07
2018-05-09T07:29:46.161Z,982.02
2018-05-09T07:30:46.244Z,982.05
2018-05-09T07:31:44.725Z,981.98
2018-05-09T07:32:46.728Z,982.08
2018-05-09T07:33:46.757Z,982.16
2018-05-09T07:34:45.311Z,982.18
2018-05-09T07:35:47.251Z,982.06
2018-05-09T07:36:47.219Z,982.10
2018-05-09T07:37:48.752Z,982.02
2018-05-09T07:38:45.992Z,982.03
2018-05-09T07:39:46.222Z,982.12
2018-05-09T07:40:48.244Z,982.15
2018-05-09T07:41:48.310Z,982.13
2018-05-09T07:42:53.021Z,982.21
2018-05-09T07:43:47.707Z,982.20
2018-05-09T07:44:47.197Z,982.18
2018-05-09T07:45:47.432Z,982.11
2018-05-09T07:46:47.663Z,982.16
2018-05-09T07:47:49.789Z,982.12
2018-05-09T07:48:50.181Z,982.07
2018-05-09T07:49:50.339Z,981.97
2018-05-09T07:50:48.425Z,982.02
2018-05-09T07:51:50.219Z,982.16
2018-05-09T07:52:48.812Z,982.19
2018-05-09T07:53:53.986Z,982.20
2018-05-09T07:54:56.713Z,982.22
2018-05-09T07:55:49.446Z,982.25
2018-05-09T07:56:57.283Z,982.25
2018-05-09T07:57:51.738Z,982.27
2018-05-09T07:58:50.113Z,982.28
2018-05-09T07:59:51.196Z,982.21
2018-05-09T08:00:52.584Z,982.17
2018-05-09T08:01:50.686Z,982.15
2018-05-09T08:02:53.200Z,982.15
2018-05-09T08:03:54.735Z,982.12
2018-05-09T08:04:51.342Z,982.13
2018-05-09T08:05:51.573Z,982.16
2018-05-09T08:06:53.722Z,982.13
2018-05-09T08:07:55.729Z,982.13
2018-05-09T08:08:53.725Z,982.15
2018-05-09T08:09:53.439Z,982.12
2018-05-09T08:10:52.716Z,982.13
2018-05-09T08:11:53.674Z,982.13
2018-05-09T08:12:54.723Z,982.12
2018-05-09T08:13:55.767Z,982.12
2018-05-09T08:14:54.175Z,982.18
2018-05-09T08:15:55.216Z,982.13
2018-05-09T08:16:56.216Z,982.17
2018-05-09T08:17:54.425Z,982.16
2018-05-09T08:18:55.190Z,982.20
2018-05-09T08:19:58.977Z,982.18
2018-05-09T08:20:56.223Z,982.14
2018-05-09T08:21:54.862Z,982.14
2018-05-09T08:22:55.047Z,982.13
2018-05-09T08:23:59.265Z,982.20
2018-05-09T08:25:11.215Z,982.21
2018-05-09T08:25:55.750Z,982.20
2018-05-09T08:26:59.720Z,982.26
2018-05-09T08:27:59.722Z,982.29
2018-05-09T08:28:57.672Z,982.29
2018-05-09T08:29:58.220Z,982.31
2018-05-09T08:30:58.549Z,982.29
2018-05-09T08:32:01.670Z,982.29
2018-05-09T08:32:58.717Z,982.31
2018-05-09T08:33:58.724Z,982.34
2018-05-09T08:34:59.455Z,982.39
2018-05-09T08:36:03.278Z,982.44
2018-05-09T08:37:00.186Z,982.44
2018-05-09T08:37:58.867Z,982.43
2018-05-09T08:39:05.719Z,982.44
2018-05-09T08:40:00.411Z,982.43
2018-05-09T08:41:00.241Z,982.41
2018-05-09T08:42:00.232Z,982.47
2018-05-09T08:43:01.731Z,982.50
2018-05-09T08:43:59.130Z,982.47
2018-05-09T08:45:20.166Z,982.49
2018-05-09T08:45:59.366Z,982.49
2018-05-09T08:47:23.200Z,982.48
2018-05-09T08:48:03.845Z,982.45
2018-05-09T08:49:01.700Z,982.40
2018-05-09T08:50:01.721Z,982.33
2018-05-09T08:51:05.095Z,982.30
2018-05-09T08:52:23.636Z,982.30
2018-05-09T08:53:00.877Z,982.27
2018-05-09T08:54:02.715Z,982.22
2018-05-09T08:55:02.722Z,982.23
2018-05-09T08:56:05.268Z,982.18
2018-05-09T08:57:02.541Z,982.23
2018-05-09T08:58:05.663Z,982.21
2018-05-09T08:59:03.676Z,982.18
2018-05-09T09:00:02.045Z,982.22
2018-05-09T09:01:04.219Z,982.22
2018-05-09T09:02:02.449Z,982.19
2018-05-09T09:03:24.638Z,982.22
2018-05-09T09:04:05.691Z,982.21
2018-05-09T09:05:05.668Z,982.21
2018-05-09T09:06:05.271Z,982.24
2018-05-09T09:07:05.700Z,982.23
2018-05-09T09:08:10.250Z,982.18
2018-05-09T09:09:06.723Z,982.25
2018-05-09T09:10:07.702Z,982.26
2018-05-09T09:11:08.170Z,982.17
2018-05-09T09:12:08.162Z,981.78
2018-05-09T09:13:04.791Z,981.52
2018-05-09T09:14:05.014Z,982.14
2018-05-09T09:15:07.232Z,981.63
2018-05-09T09:16:10.209Z,982.17
2018-05-09T09:17:28.222Z,981.46
2018-05-09T09:18:05.908Z,981.41
2018-05-09T09:19:07.721Z,982.14
2018-05-09T09:20:08.707Z,982.09
2018-05-09T09:21:07.176Z,982.08
2018-05-09T09:22:10.234Z,982.20
2018-05-09T09:23:06.819Z,982.27
2018-05-09T09:24:08.713Z,982.38
2018-05-09T09:25:07.186Z,982.23
2018-05-09T09:26:08.221Z,982.27
2018-05-09T09:27:07.681Z,982.29
2018-05-09T09:28:09.036Z,982.32
2018-05-09T09:29:08.287Z,982.37
2018-05-09T09:30:08.289Z,982.38
2018-05-09T09:31:10.229Z,982.41
2018-05-09T09:32:11.225Z,982.46
2018-05-09T09:33:10.742Z,982.45
2018-05-09T09:34:10.737Z,982.51
2018-05-09T09:35:10.720Z,982.48
2018-05-09T09:36:09.502Z,982.44
2018-05-09T09:37:09.670Z,982.40
2018-05-09T09:38:09.899Z,982.39
2018-05-09T09:39:12.206Z,982.36
2018-05-09T09:40:13.701Z,982.32
2018-05-09T09:41:12.236Z,982.34
2018-05-09T09:42:12.219Z,982.24
2018-05-09T09:43:26.963Z,982.20
2018-05-09T09:44:11.196Z,982.18
2018-05-09T09:45:13.682Z,982.15
2018-05-09T09:46:27.394Z,982.17
2018-05-09T09:47:13.249Z,982.19
2018-05-09T09:48:13.841Z,982.16
2018-05-09T09:49:13.719Z,982.23
2018-05-09T09:50:12.325Z,982.19
2018-05-09T09:51:14.241Z,982.13
2018-05-09T09:52:14.227Z,982.15
2018-05-09T09:53:15.215Z,982.11
2018-05-09T09:54:13.137Z,982.10
2018-05-09T09:55:17.927Z,982.06
2018-05-09T09:56:13.488Z,982.10
2018-05-09T09:57:14.734Z,982.05
2018-05-09T09:58:19.214Z,982.17
2018-05-09T09:59:17.820Z,982.10
2018-05-09T10:00:16.227Z,982.09
2018-05-09T10:01:14.632Z,982.16
2018-05-09T10:02:17.727Z,982.15
2018-05-09T10:03:16.718Z,982.19
2018-05-09T10:04:16.204Z,982.22
2018-05-09T10:05:19.260Z,982.18
2018-05-09T10:06:18.233Z,982.13
2018-05-09T10:07:15.870Z,982.18
2018-05-09T10:08:31.741Z,982.19
2018-05-09T10:09:17.670Z,982.18
2018-05-09T10:10:18.218Z,982.17
2018-05-09T10:11:21.689Z,982.20
2018-05-09T10:12:17.940Z,982.22
2018-05-09T10:13:19.171Z,982.21
2018-05-09T10:14:19.217Z,982.13
2018-05-09T10:15:19.221Z,982.18
2018-05-09T10:16:19.223Z,982.22
2018-05-09T10:17:19.410Z,982.16
2018-05-09T10:18:17.910Z,982.19
2018-05-09T10:19:19.738Z,982.18
2018-05-09T10:20:24.170Z,982.19
2018-05-09T10:21:20.220Z,982.10
2018-05-09T10:22:20.225Z,982.10
2018-05-09T10:23:20.819Z,982.12
2018-05-09T10:24:19.145Z,982.16
2018-05-09T10:25:19.345Z,982.13
2018-05-09T10:26:23.568Z,982.04
2018-05-09T10:27:21.776Z,982.05
2018-05-09T10:28:19.957Z,982.00
2018-05-09T10:29:20.189Z,981.26
2018-05-09T10:30:20.365Z,981.93
2018-05-09T10:31:26.442Z,982.10
2018-05-09T10:32:22.729Z,982.02
2018-05-09T10:33:28.745Z,980.89
2018-05-09T10:34:22.733Z,980.84
2018-05-09T10:35:22.229Z,982.05
2018-05-09T10:36:22.216Z,982.07
2018-05-09T10:37:21.702Z,982.04
2018-05-09T10:38:23.194Z,982.01
2018-05-09T10:39:23.092Z,981.99
2018-05-09T10:40:24.197Z,981.99
2018-05-09T10:41:26.218Z,981.97
2018-05-09T10:42:27.060Z,981.93
2018-05-09T10:43:28.939Z,981.94
2018-05-09T10:44:23.157Z,980.92
2018-05-09T10:45:23.872Z,980.83
2018-05-09T10:46:28.554Z,980.81
2018-05-09T10:47:27.748Z,981.70
2018-05-09T10:48:25.726Z,982.01
2018-05-09T10:49:25.690Z,981.90
2018-05-09T10:50:24.310Z,981.96
2018-05-09T10:51:24.537Z,981.94
2018-05-09T10:52:24.773Z,981.89
2018-05-09T10:53:26.691Z,981.89
2018-05-09T10:54:26.732Z,981.99
2018-05-09T10:55:27.270Z,981.93
2018-05-09T10:56:28.229Z,981.72
2018-05-09T10:57:27.235Z,981.53
2018-05-09T10:58:33.199Z,981.46
2018-05-09T10:59:26.192Z,981.45
2018-05-09T11:00:28.241Z,981.43
2018-05-09T11:01:28.225Z,981.43
2018-05-09T11:02:28.719Z,981.44
2018-05-09T11:03:28.686Z,981.42
2018-05-09T11:04:28.951Z,981.39
2018-05-09T11:05:27.507Z,981.45
2018-05-09T11:06:32.683Z,981.38
2018-05-09T11:07:29.724Z,981.42
2018-05-09T11:08:30.724Z,981.41
2018-05-09T11:09:30.761Z,981.38
2018-05-09T11:10:32.200Z,981.37
2018-05-09T11:11:31.224Z,981.44
2018-05-09T11:12:28.705Z,981.38
2018-05-09T11:13:28.939Z,981.35
2018-05-09T11:14:36.904Z,981.33
2018-05-09T11:15:31.239Z,981.30
2018-05-09T11:16:31.166Z,981.24
2018-05-09T11:17:44.730Z,981.18
2018-05-09T11:18:30.279Z,981.26
2018-05-09T11:19:31.209Z,981.30
2018-05-09T11:20:32.236Z,981.21
2018-05-09T11:21:32.674Z,981.14
2018-05-09T11:22:30.670Z,981.15
2018-05-09T11:23:34.722Z,981.14
2018-05-09T11:24:37.744Z,981.15
2018-05-09T11:25:35.274Z,981.16
2018-05-09T11:26:32.218Z,981.16
2018-05-09T11:27:36.181Z,981.15
2018-05-09T11:28:33.767Z,981.18
2018-05-09T11:29:32.691Z,981.14
2018-05-09T11:30:34.223Z,981.12
2018-05-09T11:31:32.461Z,981.10
2018-05-09T11:32:41.238Z,980.62
2018-05-09T11:33:34.751Z,980.86
2018-05-09T11:34:57.757Z,980.76
2018-05-09T11:35:33.135Z,980.74
2018-05-09T11:36:38.187Z,980.72
2018-05-09T11:37:33.563Z,980.72
2018-05-09T11:38:35.174Z,980.76
2018-05-09T11:39:35.735Z,980.77
2018-05-09T11:40:34.115Z,980.65
2018-05-09T11:41:37.727Z,980.76
2018-05-09T11:42:35.477Z,980.75
2018-05-09T11:43:36.221Z,980.48
2018-05-09T11:44:39.187Z,980.42
2018-05-09T11:45:38.687Z,980.79
2018-05-09T11:46:39.225Z,980.83
2018-05-09T11:47:35.553Z,980.93
2018-05-09T11:48:38.169Z,980.89
2018-05-09T11:49:35.941Z,980.95
2018-05-09T11:50:36.040Z,980.95
2018-05-09T11:51:36.292Z,980.96
2018-05-09T11:52:38.259Z,980.91
2018-05-09T11:53:37.428Z,981.01
2018-05-09T11:54:36.913Z,981.01
2018-05-09T11:55:38.765Z,981.04
2018-05-09T11:56:53.250Z,981.02
2018-05-09T11:57:37.654Z,981.02
2018-05-09T11:58:39.233Z,981.03
2018-05-09T11:59:39.738Z,980.96
2018-05-09T12:00:39.749Z,980.98
2018-05-09T12:01:39.358Z,980.25
2018-05-09T12:02:38.678Z,980.36
2018-05-09T12:03:41.726Z,980.30
2018-05-09T12:04:40.736Z,980.30
2018-05-09T12:05:46.734Z,980.17
2018-05-09T12:06:39.453Z,980.42
2018-05-09T12:07:41.184Z,980.22
2018-05-09T12:08:40.936Z,980.26
2018-05-09T12:09:41.749Z,980.26
2018-05-09T12:10:44.355Z,980.90
2018-05-09T12:11:44.467Z,980.87
2018-05-09T12:12:42.729Z,980.89
2018-05-09T12:13:40.970Z,980.82
2018-05-09T12:14:42.756Z,980.84
2018-05-09T12:15:43.229Z,980.32
2018-05-09T12:16:43.225Z,980.16
2018-05-09T12:17:41.704Z,980.42
2018-05-09T12:18:42.966Z,980.77
2018-05-09T12:19:45.725Z,980.14
2018-05-09T12:20:43.197Z,980.07
2018-05-09T12:21:42.427Z,980.50
2018-05-09T12:22:50.231Z,980.59
2018-05-09T12:23:50.729Z,980.02
2018-05-09T12:24:44.727Z,980.04
2018-05-09T12:25:44.733Z,980.05
2018-05-09T12:26:43.361Z,980.42
2018-05-09T12:27:45.252Z,980.63
2018-05-09T12:28:45.227Z,980.59
2018-05-09T12:29:44.880Z,980.58
2018-05-09T12:30:50.777Z,980.55